Airfield :
LOGIN :

Register | Disclaimer

   EN    FR    IT 

 










Legend :    VFR   Marginal VFR   IFR   Intensive IFR   Very Intensive IFR
Visi :
Ceiling :
>= 8 km
>= 3000ft
5 to 8 km
1000 to 3000 ft
1500m to 5 km
500 to 1000 ft
800 to 1500m
200 to 500 ft
< 800m
< 200 ft
Symbols :   Thunderstorms  Fog  Heavy snow  Heavy precipitations  Wind > 20 kt
SIGMETs :     Misc.  Thunderstorms  Icing  Turbulence  Mountain Waves  Volcanic Ashes






- Airport Elevation : 821 ft
- IATA code : LYS


LFLL - Lyon St Exupéry / Satolas

CURRENT METAR :
  • 141830Z 28003KT 2900 SN FEW003 BKN008 OVC012 00/00 Q0997 TEMPO 0800 SN BKN004

EXPIRED METARs :
  • 141800Z 25001KT 2200 SN FEW007 OVC015 00/00 Q0998 TEMPO 2000 SN BKN004
  • 141730Z VRB02KT 4200 SN FEW003 OVC016 01/00 Q0998 TEMPO 2000 SN BKN004
  • 141700Z 06003KT 030V100 3200 SN FEW003 BKN015 OVC028 01/00 Q0998 TEMPO 2000 SN BKN004
  • 141630Z 14003KT 2500 SN FEW003 OVC014 01/01 Q0998 TEMPO 2000 SN BKN004
  • 141600Z 19003KT 150V220 4900 SN FEW003 BKN016 01/01 Q0997 TEMPO 2000 SN BKN004

TAF TAF LFLL
Valid from the 14 at 18:00 until the 16 at 00:00 UTC


141700Z 1418/1524 VRB03KT 4000 SN BKN012 OVC030
TEMPO 1418/1505 0800 BKN004
BECMG 1501/1504 18006KT
BECMG 1504/1508 CAVOK
BECMG 1518/1521 VRB03KT



MET'MAP, your aeronautical weather chart ! - Copyright ORBIFLY December 2007 - Disclaimer

ORBIFLY MET'MAP TEAM :

Programming & Development : Alexandra Zaïnal
Concept & Development : Baudouin d'Aumeries
Co-Development & Prog : Marc-Olivier Méhu
Technical & hardware support : Manuel Goepfert

Contact : metmap@orbifly.com




SOURCES & CREDITS :

   NOAA